sensor_id;sensor_type;location;lat;lon;timestamp;P1;durP1;ratioP1;P2;durP2;ratioP2
69979;SDS011;57318;56.232;43.944;2022-08-03T00:02:23;4.10;;;3.70;;
69979;SDS011;57318;56.232;43.944;2022-08-03T00:04:48;4.83;;;4.07;;
69979;SDS011;57318;56.232;43.944;2022-08-03T00:07:14;5.40;;;4.10;;
69979;SDS011;57318;56.232;43.944;2022-08-03T00:09:40;6.28;;;4.25;;
69979;SDS011;57318;56.232;43.944;2022-08-03T00:12:06;7.07;;;4.23;;
69979;SDS011;57318;56.232;43.944;2022-08-03T00:14:32;4.63;;;4.00;;
69979;SDS011;57318;56.232;43.944;2022-08-03T00:16:57;4.50;;;4.07;;
69979;SDS011;57318;56.232;43.944;2022-08-03T00:19:23;4.47;;;4.10;;
69979;SDS011;57318;56.232;43.944;2022-08-03T00:21:49;5.27;;;4.40;;
69979;SDS011;57318;56.232;43.944;2022-08-03T00:24:14;5.87;;;4.40;;
69979;SDS011;57318;56.232;43.944;2022-08-03T00:26:40;5.57;;;3.80;;
69979;SDS011;57318;56.232;43.944;2022-08-03T00:29:06;6.87;;;4.10;;
69979;SDS011;57318;56.232;43.944;2022-08-03T00:31:31;4.60;;;3.60;;
69979;SDS011;57318;56.232;43.944;2022-08-03T00:33:57;6.07;;;4.03;;
69979;SDS011;57318;56.232;43.944;2022-08-03T00:36:23;4.20;;;3.80;;
69979;SDS011;57318;56.232;43.944;2022-08-03T00:38:48;4.40;;;4.00;;
69979;SDS011;57318;56.232;43.944;2022-08-03T00:41:14;4.37;;;3.97;;
69979;SDS011;57318;56.232;43.944;2022-08-03T00:43:40;5.67;;;3.90;;
69979;SDS011;57318;56.232;43.944;2022-08-03T00:46:05;3.83;;;3.53;;
69979;SDS011;57318;56.232;43.944;2022-08-03T00:48:31;3.83;;;3.47;;
69979;SDS011;57318;56.232;43.944;2022-08-03T00:50:57;4.40;;;4.00;;
69979;SDS011;57318;56.232;43.944;2022-08-03T00:53:22;3.80;;;3.50;;
69979;SDS011;57318;56.232;43.944;2022-08-03T00:55:48;3.65;;;3.35;;
69979;SDS011;57318;56.232;43.944;2022-08-03T00:58:14;4.13;;;3.47;;
69979;SDS011;57318;56.232;43.944;2022-08-03T01:00:41;5.18;;;3.40;;
69979;SDS011;57318;56.232;43.944;2022-08-03T01:03:07;4.73;;;3.60;;
69979;SDS011;57318;56.232;43.944;2022-08-03T01:05:37;3.67;;;3.38;;
69979;SDS011;57318;56.232;43.944;2022-08-03T01:08:07;3.60;;;3.25;;
69979;SDS011;57318;56.232;43.944;2022-08-03T01:13:23;3.72;;;3.17;;
69979;SDS011;57318;56.232;43.944;2022-08-03T01:21:54;3.65;;;3.00;;
69979;SDS011;57318;56.232;43.944;2022-08-03T01:27:30;3.88;;;3.42;;
69979;SDS011;57318;56.232;43.944;2022-08-03T01:30:17;5.28;;;3.15;;
69979;SDS011;57318;56.232;43.944;2022-08-03T01:36:03;4.30;;;3.30;;
69979;SDS011;57318;56.232;43.944;2022-08-03T01:38:32;3.33;;;3.03;;
69979;SDS011;57318;56.232;43.944;2022-08-03T01:41:02;3.70;;;3.08;;
69979;SDS011;57318;56.232;43.944;2022-08-03T01:43:31;5.45;;;3.08;;
69979;SDS011;57318;56.232;43.944;2022-08-03T01:45:59;4.10;;;3.00;;
69979;SDS011;57318;56.232;43.944;2022-08-03T01:48:27;3.35;;;3.05;;
69979;SDS011;57318;56.232;43.944;2022-08-03T01:50:54;3.00;;;2.80;;
69979;SDS011;57318;56.232;43.944;2022-08-03T01:53:22;3.40;;;3.10;;
69979;SDS011;57318;56.232;43.944;2022-08-03T01:55:51;3.38;;;2.58;;
69979;SDS011;57318;56.232;43.944;2022-08-03T01:58:19;2.90;;;2.67;;
69979;SDS011;57318;56.232;43.944;2022-08-03T02:00:48;3.05;;;2.80;;
69979;SDS011;57318;56.232;43.944;2022-08-03T02:03:14;2.85;;;2.65;;
69979;SDS011;57318;56.232;43.944;2022-08-03T02:05:42;3.00;;;2.70;;
69979;SDS011;57318;56.232;43.944;2022-08-03T02:08:09;3.25;;;2.90;;
69979;SDS011;57318;56.232;43.944;2022-08-03T02:10:38;3.00;;;2.70;;
69979;SDS011;57318;56.232;43.944;2022-08-03T02:13:08;2.95;;;2.72;;
69979;SDS011;57318;56.232;43.944;2022-08-03T02:15:35;4.40;;;2.88;;
69979;SDS011;57318;56.232;43.944;2022-08-03T02:18:02;3.25;;;2.80;;
69979;SDS011;57318;56.232;43.944;2022-08-03T02:20:31;3.70;;;3.00;;
69979;SDS011;57318;56.232;43.944;2022-08-03T02:23:00;3.65;;;3.30;;
69979;SDS011;57318;56.232;43.944;2022-08-03T02:25:26;3.42;;;2.90;;
69979;SDS011;57318;56.232;43.944;2022-08-03T02:27:55;3.55;;;2.90;;
69979;SDS011;57318;56.232;43.944;2022-08-03T02:30:30;3.05;;;2.80;;
69979;SDS011;57318;56.232;43.944;2022-08-03T02:33:04;4.07;;;2.75;;
69979;SDS011;57318;56.232;43.944;2022-08-03T02:35:34;2.78;;;2.58;;
69979;SDS011;57318;56.232;43.944;2022-08-03T02:38:01;5.63;;;2.75;;
69979;SDS011;57318;56.232;43.944;2022-08-03T02:40:29;3.53;;;3.05;;
69979;SDS011;57318;56.232;43.944;2022-08-03T02:43:01;4.55;;;3.00;;
69979;SDS011;57318;56.232;43.944;2022-08-03T02:45:29;6.60;;;2.95;;
69979;SDS011;57318;56.232;43.944;2022-08-03T02:48:00;3.97;;;3.08;;
69979;SDS011;57318;56.232;43.944;2022-08-03T02:50:29;3.13;;;2.83;;
69979;SDS011;57318;56.232;43.944;2022-08-03T02:52:55;4.80;;;3.00;;
69979;SDS011;57318;56.232;43.944;2022-08-03T02:55:22;7.13;;;3.40;;
69979;SDS011;57318;56.232;43.944;2022-08-03T02:57:50;5.07;;;3.00;;
69979;SDS011;57318;56.232;43.944;2022-08-03T03:00:18;5.35;;;3.20;;
69979;SDS011;57318;56.232;43.944;2022-08-03T03:02:44;4.63;;;3.50;;
69979;SDS011;57318;56.232;43.944;2022-08-03T03:05:11;4.95;;;3.50;;
69979;SDS011;57318;56.232;43.944;2022-08-03T03:10:04;7.13;;;4.03;;
69979;SDS011;57318;56.232;43.944;2022-08-03T03:12:32;6.22;;;3.80;;
69979;SDS011;57318;56.232;43.944;2022-08-03T03:15:00;7.30;;;3.72;;
69979;SDS011;57318;56.232;43.944;2022-08-03T03:17:25;4.13;;;3.40;;
69979;SDS011;57318;56.232;43.944;2022-08-03T03:19:52;4.03;;;3.15;;
69979;SDS011;57318;56.232;43.944;2022-08-03T03:22:18;5.55;;;3.15;;
69979;SDS011;57318;56.232;43.944;2022-08-03T03:24:45;6.05;;;3.00;;
69979;SDS011;57318;56.232;43.944;2022-08-03T03:27:13;5.70;;;3.45;;
69979;SDS011;57318;56.232;43.944;2022-08-03T03:29:39;3.78;;;3.25;;
69979;SDS011;57318;56.232;43.944;2022-08-03T03:32:05;7.53;;;3.58;;
69979;SDS011;57318;56.232;43.944;2022-08-03T03:34:31;4.32;;;3.55;;
69979;SDS011;57318;56.232;43.944;2022-08-03T03:36:58;12.98;;;3.70;;
69979;SDS011;57318;56.232;43.944;2022-08-03T03:39:23;3.38;;;3.08;;
69979;SDS011;57318;56.232;43.944;2022-08-03T03:41:49;3.63;;;3.30;;
69979;SDS011;57318;56.232;43.944;2022-08-03T03:44:15;5.10;;;3.25;;
69979;SDS011;57318;56.232;43.944;2022-08-03T03:46:41;3.92;;;3.63;;
69979;SDS011;57318;56.232;43.944;2022-08-03T03:49:07;4.25;;;3.63;;
69979;SDS011;57318;56.232;43.944;2022-08-03T03:51:33;4.22;;;3.20;;
69979;SDS011;57318;56.232;43.944;2022-08-03T03:53:59;4.93;;;3.60;;
69979;SDS011;57318;56.232;43.944;2022-08-03T03:56:28;4.05;;;3.55;;
69979;SDS011;57318;56.232;43.944;2022-08-03T03:58:55;3.63;;;3.33;;
69979;SDS011;57318;56.232;43.944;2022-08-03T04:01:20;3.47;;;3.17;;
69979;SDS011;57318;56.232;43.944;2022-08-03T04:03:46;5.35;;;4.00;;
69979;SDS011;57318;56.232;43.944;2022-08-03T04:06:12;4.35;;;3.60;;
69979;SDS011;57318;56.232;43.944;2022-08-03T04:08:59;4.70;;;3.30;;
69979;SDS011;57318;56.232;43.944;2022-08-03T04:11:47;6.50;;;3.72;;
69979;SDS011;57318;56.232;43.944;2022-08-03T04:14:18;6.82;;;3.47;;
69979;SDS011;57318;56.232;43.944;2022-08-03T04:16:58;6.22;;;3.00;;
69979;SDS011;57318;56.232;43.944;2022-08-03T04:19:30;5.05;;;3.50;;
69979;SDS011;57318;56.232;43.944;2022-08-03T04:22:09;4.28;;;3.70;;
69979;SDS011;57318;56.232;43.944;2022-08-03T04:24:44;8.68;;;4.07;;
69979;SDS011;57318;56.232;43.944;2022-08-03T04:27:13;5.38;;;4.10;;
69979;SDS011;57318;56.232;43.944;2022-08-03T04:29:42;13.38;;;4.60;;
69979;SDS011;57318;56.232;43.944;2022-08-03T04:32:12;6.22;;;3.95;;
69979;SDS011;57318;56.232;43.944;2022-08-03T04:34:39;6.47;;;4.10;;
69979;SDS011;57318;56.232;43.944;2022-08-03T04:37:08;6.30;;;5.00;;
69979;SDS011;57318;56.232;43.944;2022-08-03T04:39:37;4.45;;;4.00;;
69979;SDS011;57318;56.232;43.944;2022-08-03T04:42:06;6.03;;;4.80;;
69979;SDS011;57318;56.232;43.944;2022-08-03T04:44:39;7.28;;;4.82;;
69979;SDS011;57318;56.232;43.944;2022-08-03T04:47:08;6.78;;;4.70;;
69979;SDS011;57318;56.232;43.944;2022-08-03T04:49:35;11.90;;;4.87;;
69979;SDS011;57318;56.232;43.944;2022-08-03T04:52:02;5.72;;;4.20;;
69979;SDS011;57318;56.232;43.944;2022-08-03T04:54:29;11.15;;;4.20;;
69979;SDS011;57318;56.232;43.944;2022-08-03T04:56:55;5.50;;;4.13;;
69979;SDS011;57318;56.232;43.944;2022-08-03T04:59:21;5.27;;;3.80;;
69979;SDS011;57318;56.232;43.944;2022-08-03T05:01:46;5.53;;;3.90;;
69979;SDS011;57318;56.232;43.944;2022-08-03T05:04:12;11.27;;;4.00;;
69979;SDS011;57318;56.232;43.944;2022-08-03T05:06:38;4.30;;;3.60;;
69979;SDS011;57318;56.232;43.944;2022-08-03T05:09:04;12.07;;;4.17;;
69979;SDS011;57318;56.232;43.944;2022-08-03T05:11:30;7.47;;;4.45;;
69979;SDS011;57318;56.232;43.944;2022-08-03T05:13:55;6.10;;;4.00;;
69979;SDS011;57318;56.232;43.944;2022-08-03T05:16:21;7.57;;;4.50;;
69979;SDS011;57318;56.232;43.944;2022-08-03T05:18:47;5.20;;;4.13;;
69979;SDS011;57318;56.232;43.944;2022-08-03T05:21:12;4.47;;;3.97;;
69979;SDS011;57318;56.232;43.944;2022-08-03T05:23:38;4.53;;;3.55;;
69979;SDS011;57318;56.232;43.944;2022-08-03T05:26:05;6.45;;;4.10;;
69979;SDS011;57318;56.232;43.944;2022-08-03T05:28:31;4.47;;;4.07;;
69979;SDS011;57318;56.232;43.944;2022-08-03T05:30:56;6.10;;;4.17;;
69979;SDS011;57318;56.232;43.944;2022-08-03T05:33:22;11.30;;;4.70;;
69979;SDS011;57318;56.232;43.944;2022-08-03T05:35:47;5.10;;;3.90;;
69979;SDS011;57318;56.232;43.944;2022-08-03T05:38:13;4.53;;;3.73;;
69979;SDS011;57318;56.232;43.944;2022-08-03T05:40:39;5.70;;;5.10;;
69979;SDS011;57318;56.232;43.944;2022-08-03T05:43:04;5.70;;;4.03;;
69979;SDS011;57318;56.232;43.944;2022-08-03T05:45:30;6.07;;;4.27;;
69979;SDS011;57318;56.232;43.944;2022-08-03T05:47:55;5.93;;;3.43;;
69979;SDS011;57318;56.232;43.944;2022-08-03T05:50:21;4.50;;;3.80;;
69979;SDS011;57318;56.232;43.944;2022-08-03T05:52:47;4.95;;;3.60;;
69979;SDS011;57318;56.232;43.944;2022-08-03T05:55:13;12.63;;;3.87;;
69979;SDS011;57318;56.232;43.944;2022-08-03T05:57:39;5.75;;;3.20;;
69979;SDS011;57318;56.232;43.944;2022-08-03T06:00:06;4.70;;;3.50;;
69979;SDS011;57318;56.232;43.944;2022-08-03T06:02:33;5.53;;;3.60;;
69979;SDS011;57318;56.232;43.944;2022-08-03T06:04:59;6.03;;;3.38;;
69979;SDS011;57318;56.232;43.944;2022-08-03T06:07:25;6.45;;;3.60;;
69979;SDS011;57318;56.232;43.944;2022-08-03T06:09:51;4.90;;;3.72;;
69979;SDS011;57318;56.232;43.944;2022-08-03T06:12:16;8.68;;;3.72;;
69979;SDS011;57318;56.232;43.944;2022-08-03T06:14:42;3.60;;;3.30;;
69979;SDS011;57318;56.232;43.944;2022-08-03T06:17:08;4.38;;;3.30;;
69979;SDS011;57318;56.232;43.944;2022-08-03T06:19:33;8.43;;;3.77;;
69979;SDS011;57318;56.232;43.944;2022-08-03T06:21:59;4.20;;;3.33;;
69979;SDS011;57318;56.232;43.944;2022-08-03T06:24:25;4.05;;;3.50;;
69979;SDS011;57318;56.232;43.944;2022-08-03T06:26:50;3.10;;;2.80;;
69979;SDS011;57318;56.232;43.944;2022-08-03T06:29:16;3.42;;;3.10;;
69979;SDS011;57318;56.232;43.944;2022-08-03T06:31:41;4.45;;;3.05;;
69979;SDS011;57318;56.232;43.944;2022-08-03T06:34:07;3.58;;;3.00;;
69979;SDS011;57318;56.232;43.944;2022-08-03T06:36:33;3.42;;;3.10;;
69979;SDS011;57318;56.232;43.944;2022-08-03T06:38:59;3.25;;;2.95;;
69979;SDS011;57318;56.232;43.944;2022-08-03T06:43:51;5.78;;;3.05;;
69979;SDS011;57318;56.232;43.944;2022-08-03T06:46:17;2.80;;;2.53;;
69979;SDS011;57318;56.232;43.944;2022-08-03T06:48:43;3.05;;;2.85;;
69979;SDS011;57318;56.232;43.944;2022-08-03T06:53:34;2.72;;;2.40;;
69979;SDS011;57318;56.232;43.944;2022-08-03T06:56:00;3.20;;;2.60;;
69979;SDS011;57318;56.232;43.944;2022-08-03T06:58:26;3.67;;;2.40;;
69979;SDS011;57318;56.232;43.944;2022-08-03T07:00:52;5.25;;;2.33;;
69979;SDS011;57318;56.232;43.944;2022-08-03T07:03:17;2.63;;;2.20;;
69979;SDS011;57318;56.232;43.944;2022-08-03T07:05:43;4.43;;;2.28;;
69979;SDS011;57318;56.232;43.944;2022-08-03T07:08:12;8.70;;;2.58;;
69979;SDS011;57318;56.232;43.944;2022-08-03T07:10:38;2.00;;;1.90;;
69979;SDS011;57318;56.232;43.944;2022-08-03T07:13:04;3.08;;;2.08;;
69979;SDS011;57318;56.232;43.944;2022-08-03T07:15:30;1.90;;;1.80;;
69979;SDS011;57318;56.232;43.944;2022-08-03T07:17:56;2.10;;;1.90;;
69979;SDS011;57318;56.232;43.944;2022-08-03T07:20:22;2.50;;;1.80;;
69979;SDS011;57318;56.232;43.944;2022-08-03T07:22:48;1.63;;;1.45;;
69979;SDS011;57318;56.232;43.944;2022-08-03T07:25:14;4.70;;;2.60;;
69979;SDS011;57318;56.232;43.944;2022-08-03T07:27:46;7.35;;;2.20;;
69979;SDS011;57318;56.232;43.944;2022-08-03T07:30:13;2.65;;;1.80;;
69979;SDS011;57318;56.232;43.944;2022-08-03T07:32:40;5.40;;;3.65;;
69979;SDS011;57318;56.232;43.944;2022-08-03T07:35:06;2.10;;;2.00;;
69979;SDS011;57318;56.232;43.944;2022-08-03T07:37:33;2.33;;;2.13;;
69979;SDS011;57318;56.232;43.944;2022-08-03T07:39:59;2.10;;;2.00;;
69979;SDS011;57318;56.232;43.944;2022-08-03T07:42:26;2.28;;;2.17;;
69979;SDS011;57318;56.232;43.944;2022-08-03T07:44:52;3.95;;;2.20;;
69979;SDS011;57318;56.232;43.944;2022-08-03T07:47:19;3.10;;;2.28;;
69979;SDS011;57318;56.232;43.944;2022-08-03T07:49:47;2.53;;;2.33;;
69979;SDS011;57318;56.232;43.944;2022-08-03T07:52:13;6.40;;;2.38;;
69979;SDS011;57318;56.232;43.944;2022-08-03T07:54:57;5.60;;;2.80;;
69979;SDS011;57318;56.232;43.944;2022-08-03T07:57:23;2.72;;;2.50;;
69979;SDS011;57318;56.232;43.944;2022-08-03T07:59:48;2.60;;;2.30;;
69979;SDS011;57318;56.232;43.944;2022-08-03T08:02:14;6.80;;;2.50;;
69979;SDS011;57318;56.232;43.944;2022-08-03T08:04:40;3.72;;;2.40;;
69979;SDS011;57318;56.232;43.944;2022-08-03T08:07:06;4.25;;;2.38;;
69979;SDS011;57318;56.232;43.944;2022-08-03T08:09:32;4.28;;;2.40;;
69979;SDS011;57318;56.232;43.944;2022-08-03T08:11:58;9.10;;;2.60;;
69979;SDS011;57318;56.232;43.944;2022-08-03T08:14:24;4.05;;;2.50;;
69979;SDS011;57318;56.232;43.944;2022-08-03T08:16:49;3.45;;;2.20;;
69979;SDS011;57318;56.232;43.944;2022-08-03T08:19:15;2.72;;;2.50;;
69979;SDS011;57318;56.232;43.944;2022-08-03T08:21:41;2.85;;;2.63;;
69979;SDS011;57318;56.232;43.944;2022-08-03T08:24:08;2.97;;;2.40;;
69979;SDS011;57318;56.232;43.944;2022-08-03T08:26:35;4.07;;;2.30;;
69979;SDS011;57318;56.232;43.944;2022-08-03T08:29:01;3.22;;;2.20;;
69979;SDS011;57318;56.232;43.944;2022-08-03T08:31:26;4.25;;;2.47;;
69979;SDS011;57318;56.232;43.944;2022-08-03T08:33:52;2.35;;;2.25;;
69979;SDS011;57318;56.232;43.944;2022-08-03T08:36:18;3.33;;;2.45;;
69979;SDS011;57318;56.232;43.944;2022-08-03T08:38:43;5.07;;;2.33;;
69979;SDS011;57318;56.232;43.944;2022-08-03T08:41:10;2.50;;;2.30;;
69979;SDS011;57318;56.232;43.944;2022-08-03T08:43:37;3.13;;;2.40;;
69979;SDS011;57318;56.232;43.944;2022-08-03T08:46:02;3.65;;;2.42;;
69979;SDS011;57318;56.232;43.944;2022-08-03T08:48:32;2.45;;;2.20;;
69979;SDS011;57318;56.232;43.944;2022-08-03T08:51:03;1.95;;;1.85;;
69979;SDS011;57318;56.232;43.944;2022-08-03T08:53:30;3.20;;;2.30;;
69979;SDS011;57318;56.232;43.944;2022-08-03T08:55:59;4.18;;;2.20;;
69979;SDS011;57318;56.232;43.944;2022-08-03T08:58:32;2.90;;;2.67;;
69979;SDS011;57318;56.232;43.944;2022-08-03T09:01:01;4.80;;;2.92;;
69979;SDS011;57318;56.232;43.944;2022-08-03T09:03:27;4.22;;;2.40;;
69979;SDS011;57318;56.232;43.944;2022-08-03T09:05:53;2.67;;;2.50;;
69979;SDS011;57318;56.232;43.944;2022-08-03T09:08:19;3.85;;;2.60;;
69979;SDS011;57318;56.232;43.944;2022-08-03T09:10:47;4.07;;;2.92;;
69979;SDS011;57318;56.232;43.944;2022-08-03T09:13:13;2.80;;;2.60;;
69979;SDS011;57318;56.232;43.944;2022-08-03T09:15:38;3.15;;;2.63;;
69979;SDS011;57318;56.232;43.944;2022-08-03T09:18:06;2.85;;;2.65;;
69979;SDS011;57318;56.232;43.944;2022-08-03T09:20:33;3.00;;;2.80;;
69979;SDS011;57318;56.232;43.944;2022-08-03T09:23:02;2.95;;;2.70;;
69979;SDS011;57318;56.232;43.944;2022-08-03T09:25:36;2.90;;;2.70;;
69979;SDS011;57318;56.232;43.944;2022-08-03T09:28:13;4.18;;;2.90;;
69979;SDS011;57318;56.232;43.944;2022-08-03T09:30:42;5.90;;;3.28;;
69979;SDS011;57318;56.232;43.944;2022-08-03T09:33:10;3.25;;;2.83;;
69979;SDS011;57318;56.232;43.944;2022-08-03T09:35:46;3.10;;;2.90;;
69979;SDS011;57318;56.232;43.944;2022-08-03T09:38:14;2.60;;;2.40;;
69979;SDS011;57318;56.232;43.944;2022-08-03T09:40:41;3.95;;;2.80;;
69979;SDS011;57318;56.232;43.944;2022-08-03T09:43:08;3.20;;;3.00;;
69979;SDS011;57318;56.232;43.944;2022-08-03T09:45:34;9.60;;;3.40;;
69979;SDS011;57318;56.232;43.944;2022-08-03T09:50:47;3.20;;;3.00;;
69979;SDS011;57318;56.232;43.944;2022-08-03T09:53:20;3.97;;;3.67;;
69979;SDS011;57318;56.232;43.944;2022-08-03T09:55:53;4.10;;;3.80;;
69979;SDS011;57318;56.232;43.944;2022-08-03T09:58:21;4.10;;;3.90;;
69979;SDS011;57318;56.232;43.944;2022-08-03T10:00:58;4.00;;;3.70;;
69979;SDS011;57318;56.232;43.944;2022-08-03T10:03:28;4.65;;;3.60;;
69979;SDS011;57318;56.232;43.944;2022-08-03T10:05:55;4.35;;;3.95;;
69979;SDS011;57318;56.232;43.944;2022-08-03T10:08:22;3.45;;;3.22;;
69979;SDS011;57318;56.232;43.944;2022-08-03T10:10:49;3.97;;;3.67;;
69979;SDS011;57318;56.232;43.944;2022-08-03T10:13:19;3.78;;;3.53;;
69979;SDS011;57318;56.232;43.944;2022-08-03T10:15:46;4.10;;;3.75;;
69979;SDS011;57318;56.232;43.944;2022-08-03T10:18:12;5.13;;;4.30;;
69979;SDS011;57318;56.232;43.944;2022-08-03T10:20:45;4.45;;;3.65;;
69979;SDS011;57318;56.232;43.944;2022-08-03T10:23:16;3.80;;;3.60;;
69979;SDS011;57318;56.232;43.944;2022-08-03T10:25:43;4.18;;;3.88;;
69979;SDS011;57318;56.232;43.944;2022-08-03T10:28:14;4.72;;;3.58;;
69979;SDS011;57318;56.232;43.944;2022-08-03T10:30:43;4.53;;;3.85;;
69979;SDS011;57318;56.232;43.944;2022-08-03T10:33:13;3.83;;;3.63;;
69979;SDS011;57318;56.232;43.944;2022-08-03T10:35:43;4.00;;;3.55;;
69979;SDS011;57318;56.232;43.944;2022-08-03T10:38:16;4.32;;;3.97;;
69979;SDS011;57318;56.232;43.944;2022-08-03T10:40:44;4.45;;;4.05;;
69979;SDS011;57318;56.232;43.944;2022-08-03T10:43:33;4.78;;;4.00;;
69979;SDS011;57318;56.232;43.944;2022-08-03T10:46:02;4.15;;;3.80;;
69979;SDS011;57318;56.232;43.944;2022-08-03T10:48:31;4.47;;;4.03;;
69979;SDS011;57318;56.232;43.944;2022-08-03T10:50:59;3.60;;;3.30;;
69979;SDS011;57318;56.232;43.944;2022-08-03T10:53:39;5.07;;;3.35;;
69979;SDS011;57318;56.232;43.944;2022-08-03T10:59:55;4.82;;;4.30;;
69979;SDS011;57318;56.232;43.944;2022-08-03T11:02:09;3.88;;;3.58;;
69979;SDS011;57318;56.232;43.944;2022-08-03T11:04:36;6.18;;;4.05;;
69979;SDS011;57318;56.232;43.944;2022-08-03T11:07:44;4.10;;;3.80;;
69979;SDS011;57318;56.232;43.944;2022-08-03T11:09:51;4.07;;;3.80;;
69979;SDS011;57318;56.232;43.944;2022-08-03T11:14:52;4.57;;;3.70;;
69979;SDS011;57318;56.232;43.944;2022-08-03T11:17:19;4.13;;;3.83;;
69979;SDS011;57318;56.232;43.944;2022-08-03T11:19:46;7.72;;;4.45;;
69979;SDS011;57318;56.232;43.944;2022-08-03T11:22:13;4.57;;;4.07;;
69979;SDS011;57318;56.232;43.944;2022-08-03T11:35:06;4.03;;;3.70;;
69979;SDS011;57318;56.232;43.944;2022-08-03T11:37:35;6.97;;;3.90;;
69979;SDS011;57318;56.232;43.944;2022-08-03T11:45:58;3.97;;;3.70;;
69979;SDS011;57318;56.232;43.944;2022-08-03T11:48:41;5.28;;;4.00;;
69979;SDS011;57318;56.232;43.944;2022-08-03T11:51:20;4.50;;;3.92;;
69979;SDS011;57318;56.232;43.944;2022-08-03T11:53:54;4.00;;;3.70;;
69979;SDS011;57318;56.232;43.944;2022-08-03T11:56:21;4.20;;;3.80;;
69979;SDS011;57318;56.232;43.944;2022-08-03T11:58:47;4.43;;;4.10;;
69979;SDS011;57318;56.232;43.944;2022-08-03T12:01:14;4.10;;;3.80;;
69979;SDS011;57318;56.232;43.944;2022-08-03T12:03:42;6.53;;;4.22;;
69979;SDS011;57318;56.232;43.944;2022-08-03T12:06:09;4.97;;;4.57;;
69979;SDS011;57318;56.232;43.944;2022-08-03T12:08:36;4.50;;;4.00;;
69979;SDS011;57318;56.232;43.944;2022-08-03T12:11:03;4.70;;;4.32;;
69979;SDS011;57318;56.232;43.944;2022-08-03T12:13:44;4.80;;;4.50;;
69979;SDS011;57318;56.232;43.944;2022-08-03T12:16:22;5.05;;;4.30;;
69979;SDS011;57318;56.232;43.944;2022-08-03T12:18:58;7.68;;;4.70;;
69979;SDS011;57318;56.232;43.944;2022-08-03T12:21:26;4.65;;;4.25;;
69979;SDS011;57318;56.232;43.944;2022-08-03T12:23:58;5.68;;;4.32;;
69979;SDS011;57318;56.232;43.944;2022-08-03T12:26:25;4.60;;;4.20;;
69979;SDS011;57318;56.232;43.944;2022-08-03T12:28:51;7.05;;;4.00;;
69979;SDS011;57318;56.232;43.944;2022-08-03T12:31:17;5.95;;;4.18;;
69979;SDS011;57318;56.232;43.944;2022-08-03T12:34:04;4.80;;;4.38;;
69979;SDS011;57318;56.232;43.944;2022-08-03T12:36:33;4.63;;;4.20;;
69979;SDS011;57318;56.232;43.944;2022-08-03T12:39:06;5.68;;;4.43;;
69979;SDS011;57318;56.232;43.944;2022-08-03T12:41:36;6.00;;;4.20;;
69979;SDS011;57318;56.232;43.944;2022-08-03T12:44:05;4.72;;;4.07;;
69979;SDS011;57318;56.232;43.944;2022-08-03T12:46:36;4.75;;;4.28;;
69979;SDS011;57318;56.232;43.944;2022-08-03T12:49:04;4.95;;;4.40;;
69979;SDS011;57318;56.232;43.944;2022-08-03T12:51:33;4.32;;;4.03;;
69979;SDS011;57318;56.232;43.944;2022-08-03T12:54:01;4.63;;;4.22;;
69979;SDS011;57318;56.232;43.944;2022-08-03T12:56:28;4.57;;;4.18;;
69979;SDS011;57318;56.232;43.944;2022-08-03T12:58:54;4.65;;;4.25;;
69979;SDS011;57318;56.232;43.944;2022-08-03T13:01:20;5.43;;;4.50;;
69979;SDS011;57318;56.232;43.944;2022-08-03T13:03:49;4.93;;;4.40;;
69979;SDS011;57318;56.232;43.944;2022-08-03T13:06:17;4.80;;;4.45;;
69979;SDS011;57318;56.232;43.944;2022-08-03T13:08:47;6.53;;;4.50;;
69979;SDS011;57318;56.232;43.944;2022-08-03T13:11:23;5.20;;;4.70;;
69979;SDS011;57318;56.232;43.944;2022-08-03T13:13:50;4.60;;;4.20;;
69979;SDS011;57318;56.232;43.944;2022-08-03T13:16:17;6.07;;;4.90;;
69979;SDS011;57318;56.232;43.944;2022-08-03T13:18:45;4.82;;;4.53;;
69979;SDS011;57318;56.232;43.944;2022-08-03T13:21:11;8.57;;;4.72;;
69979;SDS011;57318;56.232;43.944;2022-08-03T13:23:38;6.15;;;4.63;;
69979;SDS011;57318;56.232;43.944;2022-08-03T13:26:04;5.72;;;4.47;;
69979;SDS011;57318;56.232;43.944;2022-08-03T13:28:30;4.75;;;4.40;;
69979;SDS011;57318;56.232;43.944;2022-08-03T13:30:55;5.50;;;4.57;;
69979;SDS011;57318;56.232;43.944;2022-08-03T13:33:21;5.97;;;4.50;;
69979;SDS011;57318;56.232;43.944;2022-08-03T13:35:47;4.95;;;4.32;;
69979;SDS011;57318;56.232;43.944;2022-08-03T13:38:13;5.10;;;4.55;;
69979;SDS011;57318;56.232;43.944;2022-08-03T13:40:40;4.63;;;4.30;;
69979;SDS011;57318;56.232;43.944;2022-08-03T13:43:05;6.10;;;4.55;;
69979;SDS011;57318;56.232;43.944;2022-08-03T13:45:31;10.45;;;5.05;;
69979;SDS011;57318;56.232;43.944;2022-08-03T13:47:57;8.70;;;4.90;;
69979;SDS011;57318;56.232;43.944;2022-08-03T13:50:22;5.07;;;4.57;;
69979;SDS011;57318;56.232;43.944;2022-08-03T13:52:48;5.90;;;4.55;;
69979;SDS011;57318;56.232;43.944;2022-08-03T13:55:13;4.32;;;3.95;;
69979;SDS011;57318;56.232;43.944;2022-08-03T13:57:39;4.80;;;4.40;;
69979;SDS011;57318;56.232;43.944;2022-08-03T14:00:05;4.75;;;4.15;;
69979;SDS011;57318;56.232;43.944;2022-08-03T14:02:31;6.57;;;4.55;;
69979;SDS011;57318;56.232;43.944;2022-08-03T14:04:57;5.57;;;4.57;;
69979;SDS011;57318;56.232;43.944;2022-08-03T14:07:23;8.00;;;4.50;;
69979;SDS011;57318;56.232;43.944;2022-08-03T14:09:48;5.15;;;4.60;;
69979;SDS011;57318;56.232;43.944;2022-08-03T14:12:14;7.25;;;4.63;;
69979;SDS011;57318;56.232;43.944;2022-08-03T14:14:39;5.28;;;4.50;;
69979;SDS011;57318;56.232;43.944;2022-08-03T14:17:05;5.72;;;5.22;;
69979;SDS011;57318;56.232;43.944;2022-08-03T14:19:31;6.00;;;4.78;;
69979;SDS011;57318;56.232;43.944;2022-08-03T14:21:57;6.10;;;4.40;;
69979;SDS011;57318;56.232;43.944;2022-08-03T14:24:23;5.28;;;4.55;;
69979;SDS011;57318;56.232;43.944;2022-08-03T14:26:48;4.70;;;4.30;;
69979;SDS011;57318;56.232;43.944;2022-08-03T14:29:14;5.57;;;4.43;;
69979;SDS011;57318;56.232;43.944;2022-08-03T14:31:40;4.93;;;4.53;;
69979;SDS011;57318;56.232;43.944;2022-08-03T14:34:05;7.18;;;4.55;;
69979;SDS011;57318;56.232;43.944;2022-08-03T14:36:31;5.10;;;4.60;;
69979;SDS011;57318;56.232;43.944;2022-08-03T14:38:57;7.85;;;4.10;;
69979;SDS011;57318;56.232;43.944;2022-08-03T14:41:22;5.80;;;4.20;;
69979;SDS011;57318;56.232;43.944;2022-08-03T14:43:48;9.00;;;4.20;;
69979;SDS011;57318;56.232;43.944;2022-08-03T14:46:14;5.40;;;5.00;;
69979;SDS011;57318;56.232;43.944;2022-08-03T14:48:39;5.88;;;4.78;;
69979;SDS011;57318;56.232;43.944;2022-08-03T14:51:05;7.35;;;4.40;;
69979;SDS011;57318;56.232;43.944;2022-08-03T14:53:31;6.47;;;4.20;;
69979;SDS011;57318;56.232;43.944;2022-08-03T14:55:56;5.03;;;3.97;;
69979;SDS011;57318;56.232;43.944;2022-08-03T14:58:22;5.85;;;4.60;;
69979;SDS011;57318;56.232;43.944;2022-08-03T15:00:52;6.28;;;5.70;;
69979;SDS011;57318;56.232;43.944;2022-08-03T15:03:19;6.85;;;6.18;;
69979;SDS011;57318;56.232;43.944;2022-08-03T15:05:52;4.75;;;4.30;;
69979;SDS011;57318;56.232;43.944;2022-08-03T15:08:19;7.10;;;4.80;;
69979;SDS011;57318;56.232;43.944;2022-08-03T15:10:46;7.00;;;4.30;;
69979;SDS011;57318;56.232;43.944;2022-08-03T15:13:12;5.07;;;4.57;;
69979;SDS011;57318;56.232;43.944;2022-08-03T15:15:38;5.63;;;4.43;;
69979;SDS011;57318;56.232;43.944;2022-08-03T15:18:04;5.20;;;4.68;;
69979;SDS011;57318;56.232;43.944;2022-08-03T15:20:30;5.68;;;5.18;;
69979;SDS011;57318;56.232;43.944;2022-08-03T15:22:55;5.47;;;4.45;;
69979;SDS011;57318;56.232;43.944;2022-08-03T15:25:21;5.60;;;4.88;;